createdAt,value
2018-02-16T00:02:24.097Z,5.50
2018-02-16T00:04:52.347Z,5.50
2018-02-16T00:07:19.806Z,5.50
2018-02-16T00:09:47.253Z,5.50
2018-02-16T00:12:14.747Z,5.60
2018-02-16T00:14:42.206Z,5.60
2018-02-16T00:17:09.689Z,5.60
2018-02-16T00:19:37.913Z,5.60
2018-02-16T00:22:05.443Z,5.60
2018-02-16T00:24:32.904Z,5.70
2018-02-16T00:27:00.392Z,5.70
2018-02-16T00:29:27.855Z,5.70
2018-02-16T00:31:55.336Z,5.70
2018-02-16T00:34:22.814Z,5.70
2018-02-16T00:36:50.263Z,5.70
2018-02-16T00:39:18.510Z,5.70
2018-02-16T00:41:46.018Z,5.60
2018-02-16T00:44:13.485Z,5.60
2018-02-16T00:46:40.983Z,5.60
2018-02-16T00:49:08.466Z,5.60
2018-02-16T00:51:35.937Z,5.60
2018-02-16T00:54:03.412Z,5.60
2018-02-16T00:56:30.873Z,5.50
2018-02-16T00:58:58.363Z,5.50
2018-02-16T01:01:25.820Z,5.50
2018-02-16T01:03:53.280Z,5.50
2018-02-16T01:06:21.521Z,5.40
2018-02-16T01:08:48.990Z,5.40
2018-02-16T01:11:16.484Z,5.40
2018-02-16T01:13:44.717Z,5.30
2018-02-16T01:16:12.174Z,5.30
2018-02-16T01:18:39.674Z,5.30
2018-02-16T01:21:07.135Z,5.30
2018-02-16T01:23:34.594Z,5.20
2018-02-16T01:26:02.067Z,5.20
2018-02-16T01:28:29.542Z,5.20
2018-02-16T01:30:57.010Z,5.20
2018-02-16T01:33:24.481Z,5.20
2018-02-16T01:35:51.951Z,5.20
2018-02-16T01:38:20.197Z,5.10
2018-02-16T01:40:47.657Z,5.10
2018-02-16T01:43:15.143Z,5.10
2018-02-16T01:45:43.402Z,5.10
2018-02-16T01:48:11.629Z,5.10
2018-02-16T01:50:39.127Z,5.10
2018-02-16T01:53:06.607Z,5.10
2018-02-16T01:55:34.924Z,5.00
2018-02-16T01:58:02.414Z,5.00
2018-02-16T02:00:29.901Z,5.00
2018-02-16T02:02:57.401Z,5.00
2018-02-16T02:05:24.862Z,5.00
2018-02-16T02:07:52.323Z,5.00
2018-02-16T02:10:19.803Z,5.00
2018-02-16T02:12:48.049Z,5.00
2018-02-16T02:15:15.510Z,5.00
2018-02-16T02:17:42.999Z,5.00
2018-02-16T02:20:11.221Z,5.00
2018-02-16T02:22:38.674Z,5.00
2018-02-16T02:25:06.149Z,5.00
2018-02-16T02:27:33.619Z,4.90
2018-02-16T02:30:01.103Z,4.90
2018-02-16T02:32:28.567Z,4.90
2018-02-16T02:34:56.050Z,4.90
2018-02-16T02:37:23.551Z,4.90
2018-02-16T02:39:51.011Z,4.90
2018-02-16T02:42:19.253Z,4.90
2018-02-16T02:44:46.748Z,4.90
2018-02-16T02:47:14.975Z,4.90
2018-02-16T02:49:42.438Z,4.90
2018-02-16T02:52:09.946Z,4.90
2018-02-16T02:54:38.171Z,4.80
2018-02-16T02:57:05.659Z,4.80
2018-02-16T02:59:33.882Z,4.80
2018-02-16T03:02:01.374Z,4.80
2018-02-16T03:04:28.863Z,4.80
2018-02-16T03:06:56.317Z,4.80
2018-02-16T03:09:23.802Z,4.80
2018-02-16T03:11:51.257Z,4.80
2018-02-16T03:14:18.741Z,4.80
2018-02-16T03:16:46.208Z,4.80
2018-02-16T03:19:13.715Z,4.80
2018-02-16T03:21:41.172Z,4.70
2018-02-16T03:24:08.632Z,4.80
2018-02-16T03:26:36.122Z,4.80
2018-02-16T03:29:03.578Z,4.80
2018-02-16T03:31:31.046Z,4.70
2018-02-16T03:33:58.531Z,4.70
2018-02-16T03:36:26.757Z,4.70
2018-02-16T03:38:54.237Z,4.70
2018-02-16T03:41:21.730Z,4.70
2018-02-16T03:43:49.220Z,4.70
2018-02-16T03:46:16.716Z,4.70
2018-02-16T03:48:44.954Z,4.70
2018-02-16T03:51:12.447Z,4.70
2018-02-16T03:53:40.667Z,4.70
2018-02-16T03:56:08.154Z,4.60
2018-02-16T03:58:35.605Z,4.60
2018-02-16T04:01:03.970Z,4.60
2018-02-16T04:03:31.430Z,4.60
2018-02-16T04:05:59.651Z,4.60
2018-02-16T04:08:28.074Z,4.60
2018-02-16T04:10:55.544Z,4.60
2018-02-16T04:13:23.009Z,4.60
2018-02-16T04:15:50.502Z,4.50
2018-02-16T04:18:18.755Z,4.50
2018-02-16T04:20:46.228Z,4.50
2018-02-16T04:23:14.487Z,4.40
2018-02-16T04:25:41.933Z,4.40
2018-02-16T04:28:09.389Z,4.40
2018-02-16T04:30:36.869Z,4.40
2018-02-16T04:33:05.097Z,4.30
2018-02-16T04:35:32.589Z,4.30
2018-02-16T04:38:00.070Z,4.30
2018-02-16T04:40:27.559Z,4.30
2018-02-16T04:42:55.035Z,4.30
2018-02-16T04:45:22.552Z,4.30
2018-02-16T04:47:50.738Z,4.30
2018-02-16T04:50:18.215Z,4.30
2018-02-16T04:52:45.691Z,4.30
2018-02-16T04:55:13.921Z,4.30
2018-02-16T04:57:41.374Z,4.30
2018-02-16T05:00:08.837Z,4.30
2018-02-16T05:02:36.297Z,4.20
2018-02-16T05:05:04.525Z,4.30
2018-02-16T05:07:32.741Z,4.30
2018-02-16T05:10:00.288Z,4.30
2018-02-16T05:12:28.516Z,4.30
2018-02-16T05:14:56.732Z,4.30
2018-02-16T05:17:24.302Z,4.30
2018-02-16T05:19:51.762Z,4.30
2018-02-16T05:22:19.745Z,4.30
2018-02-16T05:24:47.232Z,4.30
2018-02-16T05:27:15.448Z,4.30
2018-02-16T05:29:42.897Z,4.20
2018-02-16T05:32:10.372Z,4.20
2018-02-16T05:34:38.585Z,4.20
2018-02-16T05:37:06.058Z,4.20
2018-02-16T05:39:34.286Z,4.20
2018-02-16T05:42:01.767Z,4.20
2018-02-16T05:44:29.990Z,4.20
2018-02-16T05:46:57.546Z,4.20
2018-02-16T05:49:25.024Z,4.30
2018-02-16T05:51:52.467Z,4.30
2018-02-16T05:54:19.925Z,4.30
2018-02-16T05:56:47.478Z,4.30
2018-02-16T05:59:14.935Z,4.30
2018-02-16T06:01:42.426Z,4.30
2018-02-16T06:04:09.883Z,4.30
2018-02-16T06:06:37.348Z,4.30
2018-02-16T06:09:05.626Z,4.30
2018-02-16T06:11:33.961Z,4.20
2018-02-16T06:14:01.465Z,4.20
2018-02-16T06:16:29.736Z,4.20
2018-02-16T06:18:57.990Z,4.20
2018-02-16T06:21:26.329Z,4.20
2018-02-16T06:23:54.030Z,4.20
2018-02-16T06:26:21.495Z,4.20
2018-02-16T06:28:48.989Z,4.20
2018-02-16T06:31:16.647Z,4.20
2018-02-16T06:33:44.121Z,4.20
2018-02-16T06:41:53.308Z,4.20
2018-02-16T06:44:20.767Z,4.10
2018-02-16T06:46:48.245Z,4.20
2018-02-16T06:49:15.704Z,4.20
2018-02-16T06:51:43.170Z,4.20
2018-02-16T06:54:11.391Z,4.20
2018-02-16T06:56:38.862Z,4.20
2018-02-16T06:59:06.335Z,4.20
2018-02-16T07:01:33.801Z,4.20
2018-02-16T07:04:01.376Z,4.20
2018-02-16T07:06:30.624Z,4.20
2018-02-16T07:08:58.122Z,4.20
2018-02-16T07:11:26.353Z,4.20
2018-02-16T07:13:54.580Z,4.30
2018-02-16T07:16:22.800Z,4.30
2018-02-16T07:18:50.286Z,4.20
2018-02-16T07:21:17.753Z,4.30
2018-02-16T07:23:45.981Z,4.30
2018-02-16T07:26:13.450Z,4.30
2018-02-16T07:28:40.912Z,4.30
2018-02-16T07:31:08.369Z,4.30
2018-02-16T07:33:35.841Z,4.30
2018-02-16T07:36:04.081Z,4.30
2018-02-16T07:38:31.633Z,4.30
2018-02-16T07:40:59.103Z,4.30
2018-02-16T07:43:26.569Z,4.30
2018-02-16T07:45:54.039Z,4.40
2018-02-16T07:48:21.526Z,4.40
2018-02-16T07:50:49.022Z,4.40
2018-02-16T07:53:16.490Z,4.40
2018-02-16T07:55:43.980Z,4.40
2018-02-16T07:58:12.211Z,4.40
2018-02-16T08:00:39.709Z,4.40
2018-02-16T08:03:07.958Z,4.50
2018-02-16T08:05:35.426Z,4.50
2018-02-16T08:08:02.914Z,4.50
2018-02-16T08:10:30.384Z,4.50
2018-02-16T08:12:57.898Z,4.50
2018-02-16T08:15:26.126Z,4.50
2018-02-16T08:17:53.582Z,4.50
2018-02-16T08:20:21.081Z,4.50
2018-02-16T08:22:48.535Z,4.60
2018-02-16T08:25:16.027Z,4.60
2018-02-16T08:27:43.483Z,4.60
2018-02-16T08:30:10.975Z,4.60
2018-02-16T08:32:39.227Z,4.60
2018-02-16T08:35:06.702Z,4.60
2018-02-16T08:37:34.958Z,4.70
2018-02-16T08:40:02.448Z,4.70
2018-02-16T08:42:29.930Z,4.70
2018-02-16T08:44:58.199Z,4.70
2018-02-16T08:47:26.454Z,4.70
2018-02-16T08:49:53.917Z,4.70
2018-02-16T08:52:21.403Z,4.70
2018-02-16T08:54:48.871Z,4.80
2018-02-16T08:57:16.341Z,4.80
2018-02-16T08:59:43.836Z,4.80
2018-02-16T09:02:11.327Z,4.90
2018-02-16T09:04:39.554Z,5.00
2018-02-16T09:07:07.026Z,4.90
2018-02-16T09:09:34.512Z,5.00
2018-02-16T09:12:02.771Z,5.10
2018-02-16T09:14:31.030Z,5.10
2018-02-16T09:16:58.500Z,5.10
2018-02-16T09:19:26.754Z,5.20
2018-02-16T09:21:54.238Z,5.10
2018-02-16T09:24:22.503Z,5.20
2018-02-16T09:26:49.963Z,5.20
2018-02-16T09:29:18.189Z,5.20
2018-02-16T09:31:45.683Z,5.20
2018-02-16T09:34:13.152Z,5.20
2018-02-16T09:36:41.558Z,5.10
2018-02-16T09:39:11.006Z,5.10
2018-02-16T09:41:38.512Z,5.10
2018-02-16T09:44:05.988Z,5.10
2018-02-16T09:46:33.483Z,5.10
2018-02-16T09:49:00.956Z,5.10
2018-02-16T09:51:29.186Z,5.10
2018-02-16T09:53:56.675Z,5.10
2018-02-16T09:56:24.146Z,5.10
2018-02-16T09:58:52.387Z,5.10
2018-02-16T10:01:19.878Z,5.10
2018-02-16T10:03:48.125Z,5.10
2018-02-16T10:06:15.586Z,5.10
2018-02-16T10:08:43.304Z,5.10
2018-02-16T10:11:10.789Z,5.10
2018-02-16T10:13:38.271Z,5.10
2018-02-16T10:16:05.758Z,5.10
2018-02-16T10:18:33.226Z,5.10
2018-02-16T10:21:00.714Z,5.10
2018-02-16T10:23:28.179Z,5.20
2018-02-16T10:25:55.647Z,5.20
2018-02-16T10:28:23.126Z,5.20
2018-02-16T10:30:51.357Z,5.20
2018-02-16T10:33:18.848Z,5.20
2018-02-16T10:35:47.069Z,5.20
2018-02-16T10:38:14.560Z,5.20
2018-02-16T10:40:42.023Z,5.20
2018-02-16T10:43:10.285Z,5.30
2018-02-16T10:45:37.749Z,5.30
2018-02-16T10:48:05.235Z,5.30
2018-02-16T10:50:32.701Z,5.30
2018-02-16T10:53:00.193Z,5.40
2018-02-16T10:55:27.663Z,5.40
2018-02-16T10:57:55.132Z,5.40
2018-02-16T11:00:28.285Z,5.50
2018-02-16T11:03:01.306Z,5.50
2018-02-16T11:05:34.511Z,5.50
2018-02-16T11:08:02.762Z,5.60
2018-02-16T11:10:30.226Z,5.60
2018-02-16T11:12:57.730Z,5.60
2018-02-16T11:15:25.195Z,5.60
2018-02-16T11:17:52.660Z,5.70
2018-02-16T11:20:20.147Z,5.70
2018-02-16T11:22:47.768Z,5.70
2018-02-16T11:25:15.250Z,5.70
2018-02-16T11:27:42.748Z,5.70
2018-02-16T11:30:10.211Z,5.80
2018-02-16T11:32:37.663Z,5.80
2018-02-16T11:35:05.150Z,5.80
2018-02-16T11:37:32.646Z,5.80
2018-02-16T11:40:00.117Z,5.80
2018-02-16T11:42:28.365Z,5.90
2018-02-16T11:44:56.234Z,5.90
2018-02-16T11:47:25.161Z,6.00
2018-02-16T11:49:54.243Z,6.00
2018-02-16T11:52:22.548Z,6.00
2018-02-16T11:54:50.759Z,6.00
2018-02-16T11:57:18.251Z,6.00
2018-02-16T11:59:46.504Z,6.10
2018-02-16T12:02:13.970Z,6.10
2018-02-16T12:04:42.243Z,6.10
2018-02-16T12:07:09.734Z,6.10
2018-02-16T12:09:37.191Z,6.10
2018-02-16T12:12:04.667Z,6.20
2018-02-16T12:14:32.162Z,6.20
2018-02-16T12:16:59.618Z,6.20
2018-02-16T12:19:27.876Z,6.20
2018-02-16T12:21:55.339Z,6.20
2018-02-16T12:24:22.822Z,6.30
2018-02-16T12:26:51.056Z,6.50
2018-02-16T12:29:18.542Z,6.50
2018-02-16T12:31:46.804Z,6.90
2018-02-16T12:34:14.271Z,6.90
2018-02-16T12:36:42.563Z,7.30
2018-02-16T12:39:10.022Z,7.30
2018-02-16T12:41:37.506Z,7.30
2018-02-16T12:44:05.007Z,7.30
2018-02-16T12:46:32.470Z,7.40
2018-02-16T12:49:00.803Z,7.50
2018-02-16T12:51:28.321Z,7.50
2018-02-16T12:53:56.552Z,7.70
2018-02-16T12:56:26.337Z,7.70
2018-02-16T12:58:53.799Z,7.90
2018-02-16T13:01:21.517Z,8.00
2018-02-16T13:03:48.976Z,8.00
2018-02-16T13:06:17.250Z,7.70
2018-02-16T13:08:45.529Z,7.60
2018-02-16T13:11:13.741Z,7.40
2018-02-16T13:13:41.230Z,7.40
2018-02-16T13:16:08.706Z,7.30
2018-02-16T13:18:36.259Z,7.10
2018-02-16T13:21:04.508Z,6.90
2018-02-16T13:23:32.758Z,6.80
2018-02-16T13:26:00.320Z,6.80
2018-02-16T13:28:27.718Z,6.70
2018-02-16T13:30:55.974Z,6.60
2018-02-16T13:33:23.460Z,6.60
2018-02-16T13:35:51.719Z,6.60
2018-02-16T13:38:19.988Z,6.50
2018-02-16T13:40:47.456Z,6.50
2018-02-16T13:43:15.706Z,6.50
2018-02-16T13:45:43.200Z,6.40
2018-02-16T13:48:10.702Z,6.50
2018-02-16T13:50:38.187Z,6.50
2018-02-16T13:53:06.439Z,6.40
2018-02-16T13:55:33.937Z,6.40
2018-02-16T13:58:02.208Z,6.50
2018-02-16T14:00:30.358Z,6.50
2018-02-16T14:02:59.136Z,6.60
2018-02-16T14:05:26.678Z,6.60
2018-02-16T14:07:54.172Z,6.60
2018-02-16T14:10:22.395Z,6.60
2018-02-16T14:12:50.088Z,6.60
2018-02-16T14:15:18.034Z,6.60
2018-02-16T14:17:45.724Z,6.60
2018-02-16T14:20:13.211Z,6.60
2018-02-16T14:22:41.212Z,6.50
2018-02-16T14:25:08.740Z,6.50
2018-02-16T14:27:36.195Z,6.50
2018-02-16T14:30:03.697Z,6.50
2018-02-16T14:32:31.163Z,6.40
2018-02-16T14:34:58.650Z,6.40
2018-02-16T14:37:26.910Z,6.40
2018-02-16T14:39:54.380Z,6.40
2018-02-16T14:42:22.635Z,6.40
2018-02-16T14:44:50.118Z,6.40
2018-02-16T14:47:18.370Z,6.40
2018-02-16T14:49:45.914Z,6.40
2018-02-16T14:52:13.528Z,6.40
2018-02-16T14:54:40.999Z,6.40
2018-02-16T14:57:08.463Z,6.40
2018-02-16T14:59:40.648Z,6.30
2018-02-16T15:02:08.225Z,6.30
2018-02-16T15:04:36.618Z,6.20
2018-02-16T15:07:04.850Z,6.20
2018-02-16T15:09:32.370Z,6.20
2018-02-16T15:11:59.855Z,6.10
2018-02-16T15:14:27.346Z,6.10
2018-02-16T15:16:54.820Z,6.10
2018-02-16T15:19:23.164Z,6.00
2018-02-16T15:21:51.333Z,6.00
2018-02-16T15:24:18.802Z,6.00
2018-02-16T15:26:46.287Z,5.90
2018-02-16T15:29:13.747Z,5.90
2018-02-16T15:31:41.256Z,5.90
2018-02-16T15:34:08.729Z,5.90
2018-02-16T15:36:36.966Z,5.90
2018-02-16T15:39:04.463Z,5.90
2018-02-16T15:41:31.950Z,5.80
2018-02-16T15:43:59.451Z,5.80
2018-02-16T15:46:26.939Z,5.80
2018-02-16T15:48:54.439Z,5.80
2018-02-16T15:51:22.920Z,5.70
2018-02-16T15:53:50.407Z,5.70
2018-02-16T15:56:17.892Z,5.70
2018-02-16T15:58:45.392Z,5.70
2018-02-16T16:01:12.860Z,5.60
2018-02-16T16:03:40.348Z,5.60
2018-02-16T16:06:08.606Z,5.60
2018-02-16T16:08:36.078Z,5.60
2018-02-16T16:11:03.563Z,5.60
2018-02-16T16:13:31.020Z,5.60
2018-02-16T16:15:58.522Z,5.60
2018-02-16T16:18:25.984Z,5.60
2018-02-16T16:20:53.460Z,5.70
2018-02-16T16:23:20.944Z,5.60
2018-02-16T16:25:48.410Z,5.60
2018-02-16T16:28:15.899Z,5.60
2018-02-16T16:30:43.367Z,5.50
2018-02-16T16:33:10.855Z,5.40
2018-02-16T16:35:39.104Z,5.30
2018-02-16T16:38:06.652Z,5.40
2018-02-16T16:40:34.151Z,5.30
2018-02-16T16:43:01.610Z,5.30
2018-02-16T16:45:29.111Z,5.20
2018-02-16T16:47:56.582Z,5.20
2018-02-16T16:50:24.069Z,5.10
2018-02-16T16:52:52.323Z,5.10
2018-02-16T16:55:19.827Z,5.10
2018-02-16T16:57:47.295Z,5.00
2018-02-16T17:00:14.787Z,5.00
2018-02-16T17:02:42.267Z,4.90
2018-02-16T17:05:10.524Z,4.80
2018-02-16T17:07:38.758Z,4.80
2018-02-16T17:10:06.256Z,4.80
2018-02-16T17:12:33.715Z,4.80
2018-02-16T17:15:01.939Z,4.70
2018-02-16T17:17:29.435Z,4.70
2018-02-16T17:22:30.938Z,4.70
2018-02-16T17:24:58.396Z,4.70
2018-02-16T17:27:25.906Z,4.70
2018-02-16T17:29:53.399Z,4.60
2018-02-16T17:32:20.939Z,4.60
2018-02-16T17:34:49.204Z,4.60
2018-02-16T17:37:16.663Z,4.50
2018-02-16T17:39:44.923Z,4.50
2018-02-16T17:42:12.426Z,4.50
2018-02-16T17:44:39.910Z,4.50
2018-02-16T17:47:07.407Z,4.50
2018-02-16T17:49:34.876Z,4.40
2018-02-16T17:52:02.363Z,4.40
2018-02-16T17:54:29.931Z,4.40
2018-02-16T17:56:57.399Z,4.40
2018-02-16T17:59:24.864Z,4.40
2018-02-16T18:01:52.411Z,4.40
2018-02-16T18:04:19.912Z,4.30
2018-02-16T18:06:48.191Z,4.30
2018-02-16T18:09:15.672Z,4.30
2018-02-16T18:11:43.157Z,4.30
2018-02-16T18:14:10.674Z,4.30
2018-02-16T18:16:38.946Z,4.30
2018-02-16T18:19:07.168Z,4.30
2018-02-16T18:21:34.659Z,4.30
2018-02-16T18:24:02.879Z,4.30
2018-02-16T18:26:30.352Z,4.30
2018-02-16T18:28:57.838Z,4.30
2018-02-16T18:31:26.080Z,4.30
2018-02-16T18:33:53.569Z,4.30
2018-02-16T18:36:21.022Z,4.20
2018-02-16T18:38:48.511Z,4.20
2018-02-16T18:41:16.011Z,4.20
2018-02-16T18:43:43.470Z,4.20
2018-02-16T18:46:10.968Z,4.20
2018-02-16T18:48:38.451Z,4.30
2018-02-16T18:51:05.919Z,4.30
2018-02-16T18:53:33.416Z,4.30
2018-02-16T18:56:00.880Z,4.30
2018-02-16T18:58:29.204Z,4.30
2018-02-16T19:00:56.694Z,4.30
2018-02-16T19:03:24.186Z,4.30
2018-02-16T19:05:51.651Z,4.20
2018-02-16T19:08:19.126Z,4.20
2018-02-16T19:10:46.595Z,4.10
2018-02-16T19:13:14.069Z,4.10
2018-02-16T19:15:41.547Z,4.00
2018-02-16T19:18:09.798Z,4.00
2018-02-16T19:20:37.316Z,4.00
2018-02-16T19:23:04.807Z,4.00
2018-02-16T19:25:32.277Z,4.00
2018-02-16T19:27:59.958Z,4.00
2018-02-16T19:30:27.523Z,3.90
2018-02-16T19:32:55.747Z,3.90
2018-02-16T19:35:23.636Z,3.90
2018-02-16T19:37:51.228Z,3.90
2018-02-16T19:40:18.689Z,3.90
2018-02-16T19:42:46.164Z,3.90
2018-02-16T19:45:13.648Z,3.90
2018-02-16T19:47:41.149Z,3.90
2018-02-16T19:50:09.253Z,3.90
2018-02-16T19:52:37.755Z,3.90
2018-02-16T19:55:05.783Z,3.90
2018-02-16T19:57:34.506Z,3.90
2018-02-16T20:00:02.073Z,3.90
2018-02-16T20:02:29.547Z,3.90
2018-02-16T20:04:57.441Z,3.90
2018-02-16T20:07:24.991Z,3.90
2018-02-16T20:09:52.670Z,3.90
2018-02-16T20:12:20.160Z,3.90
2018-02-16T20:14:48.009Z,3.80
2018-02-16T20:17:16.299Z,3.80
2018-02-16T20:19:43.772Z,3.70
2018-02-16T20:22:11.251Z,3.70
2018-02-16T20:24:38.716Z,3.70
2018-02-16T20:27:06.945Z,3.80
2018-02-16T20:29:34.796Z,3.70
2018-02-16T20:32:03.078Z,3.80
2018-02-16T20:34:30.546Z,3.70
2018-02-16T20:36:58.011Z,3.80
2018-02-16T20:39:25.999Z,3.80
2018-02-16T20:41:53.531Z,3.80
2018-02-16T20:44:21.014Z,3.80
2018-02-16T20:46:49.249Z,3.70
2018-02-16T20:49:16.719Z,3.70
2018-02-16T20:51:44.215Z,3.70
2018-02-16T20:54:11.675Z,3.70
2018-02-16T20:56:39.139Z,3.70
2018-02-16T20:59:06.614Z,3.70
2018-02-16T21:01:34.074Z,3.80
2018-02-16T21:04:01.539Z,3.80
2018-02-16T21:06:29.046Z,3.80
2018-02-16T21:08:57.279Z,3.80
2018-02-16T21:11:24.743Z,3.80
2018-02-16T21:13:52.237Z,3.80
2018-02-16T21:16:19.695Z,3.80
2018-02-16T21:18:47.154Z,3.90
2018-02-16T21:21:14.647Z,3.90
2018-02-16T21:23:42.115Z,3.80
2018-02-16T21:26:09.578Z,3.80
2018-02-16T21:28:37.054Z,3.80
2018-02-16T21:31:05.286Z,3.90
2018-02-16T21:33:32.756Z,3.80
2018-02-16T21:36:00.230Z,3.90
2018-02-16T21:38:28.458Z,3.90
2018-02-16T21:40:55.923Z,3.90
2018-02-16T21:43:23.403Z,3.90
2018-02-16T21:45:50.871Z,3.90
2018-02-16T21:48:18.331Z,4.00
2018-02-16T21:50:46.578Z,4.00
2018-02-16T21:53:14.040Z,3.90
2018-02-16T21:55:41.516Z,4.00
2018-02-16T21:58:09.759Z,4.00
2018-02-16T22:00:37.221Z,3.90
2018-02-16T22:03:04.695Z,3.90
2018-02-16T22:05:33.807Z,4.00
2018-02-16T22:08:02.023Z,4.00
2018-02-16T22:10:29.486Z,4.00
2018-02-16T22:12:56.979Z,4.00
2018-02-16T22:15:25.217Z,4.00
2018-02-16T22:17:52.677Z,3.90
2018-02-16T22:20:20.157Z,4.00
2018-02-16T22:22:47.614Z,3.90
2018-02-16T22:25:15.120Z,4.00
2018-02-16T22:27:43.322Z,4.00
2018-02-16T22:30:10.789Z,3.90
2018-02-16T22:32:38.247Z,4.00
2018-02-16T22:35:05.725Z,4.00
2018-02-16T22:37:33.957Z,3.90
2018-02-16T22:40:01.429Z,3.90
2018-02-16T22:42:28.899Z,4.00
2018-02-16T22:44:56.364Z,4.00
2018-02-16T22:47:24.586Z,3.90
2018-02-16T22:49:52.070Z,3.90
2018-02-16T22:52:19.534Z,3.90
2018-02-16T22:54:47.002Z,3.90
2018-02-16T22:57:14.480Z,3.90
2018-02-16T22:59:41.936Z,3.90
2018-02-16T23:02:09.415Z,3.90
2018-02-16T23:04:36.906Z,3.80
2018-02-16T23:07:04.379Z,3.80
2018-02-16T23:09:31.837Z,3.80
2018-02-16T23:12:00.087Z,3.60
2018-02-16T23:14:27.541Z,3.60
2018-02-16T23:16:55.000Z,3.50
2018-02-16T23:19:22.462Z,3.50
2018-02-16T23:21:49.930Z,3.40
2018-02-16T23:24:17.388Z,3.30
2018-02-16T23:26:45.667Z,3.20
2018-02-16T23:29:13.910Z,3.20
2018-02-16T23:31:41.384Z,3.20
2018-02-16T23:34:08.870Z,3.20
2018-02-16T23:36:36.334Z,3.10
2018-02-16T23:39:03.794Z,3.10
2018-02-16T23:41:31.296Z,3.00
2018-02-16T23:43:58.718Z,3.00
2018-02-16T23:46:26.200Z,3.00
2018-02-16T23:48:53.693Z,3.00
2018-02-16T23:51:21.164Z,3.00
2018-02-16T23:53:48.639Z,3.00
2018-02-16T23:56:16.123Z,3.00
2018-02-16T23:58:43.596Z,3.00
